Time;durP1;ratioP1;P1;durP2;ratioP2;P2;SDS_P1;SDS_P2;PMS_P1;PMS_P2;Temp;Humidity;BMP_temperature;BMP_pressure;BME280_temperature;BME280_humidity;BME280_pressure;Samples;Min_cycle;Max_cycle;Signal;HPM_P1;HPM_P2
2023/06/06 00:00:34;;;;;;;14.23;11.70;;;14.60;99.90;;;;;;5010456;28;20038;-67
2023/06/06 00:03:01;;;;;;;12.80;10.63;;;14.50;99.90;;;;;;4992272;28;20038;-67
2023/06/06 00:05:29;;;;;;;13.63;10.13;;;14.50;99.90;;;;;;5010190;28;20777;-67
2023/06/06 00:07:57;;;;;;;12.75;10.07;;;14.50;99.90;;;;;;5008964;28;20128;-66
2023/06/06 00:10:25;;;;;;;11.63;10.15;;;14.50;99.90;;;;;;5018359;28;20337;-66
2023/06/06 00:12:53;;;;;;;11.18;9.45;;;14.50;99.90;;;;;;4973697;28;20038;-66
2023/06/06 00:15:20;;;;;;;12.05;9.48;;;14.40;99.90;;;;;;5009296;28;20038;-67
2023/06/06 00:17:53;;;;;;;12.60;10.25;;;14.40;99.90;;;;;;4992547;28;20462;-66
2023/06/06 00:20:20;;;;;;;12.38;9.75;;;14.40;99.90;;;;;;4993587;28;20152;-66
2023/06/06 00:22:49;;;;;;;11.95;9.50;;;14.30;99.90;;;;;;5009361;28;20477;-66
2023/06/06 00:25:16;;;;;;;12.90;9.85;;;14.30;99.90;;;;;;5010154;28;20054;-66
2023/06/06 00:27:43;;;;;;;12.18;9.63;;;14.20;99.90;;;;;;5010389;28;20046;-66
2023/06/06 00:30:11;;;;;;;12.82;10.35;;;14.20;99.90;;;;;;5001001;28;20041;-67
2023/06/06 00:32:39;;;;;;;15.70;10.30;;;14.10;99.90;;;;;;4993353;28;20045;-67
2023/06/06 00:35:06;;;;;;;13.98;10.07;;;14.10;99.90;;;;;;5011600;28;20069;-67
2023/06/06 00:37:35;;;;;;;11.57;10.00;;;14.00;99.90;;;;;;5008621;28;20570;-66
2023/06/06 00:40:04;;;;;;;11.98;10.00;;;14.00;99.90;;;;;;4992396;28;20042;-67
2023/06/06 00:42:32;;;;;;;10.85;9.73;;;13.90;99.90;;;;;;5009969;28;20127;-66
2023/06/06 00:45:00;;;;;;;13.45;9.93;;;13.90;99.90;;;;;;4992448;28;20148;-67
2023/06/06 00:47:29;;;;;;;12.73;9.80;;;13.80;99.90;;;;;;4991484;28;20034;-67
2023/06/06 00:49:58;;;;;;;11.98;9.68;;;13.80;99.90;;;;;;4992748;28;20096;-67
2023/06/06 00:52:27;;;;;;;11.73;9.90;;;13.70;99.90;;;;;;5010205;28;20053;-67
2023/06/06 00:54:55;;;;;;;12.98;9.95;;;13.70;99.90;;;;;;4993440;28;20112;-67
2023/06/06 00:57:24;;;;;;;11.23;9.13;;;13.60;99.90;;;;;;4976318;28;20061;-66
2023/06/06 00:59:53;;;;;;;12.38;9.60;;;13.60;99.90;;;;;;5000163;28;20100;-66
2023/06/06 01:02:24;;;;;;;13.25;9.98;;;13.60;99.90;;;;;;5009411;28;20070;-66
2023/06/06 01:04:52;;;;;;;11.40;9.52;;;13.60;99.90;;;;;;5008695;28;20499;-67
2023/06/06 01:07:19;;;;;;;12.05;9.23;;;13.60;99.90;;;;;;5014297;28;20732;-67
2023/06/06 01:09:47;;;;;;;15.18;9.63;;;13.50;99.90;;;;;;5013870;28;20402;-66
2023/06/06 01:12:37;;;;;;;14.93;9.70;;;13.50;99.90;;;;;;4979536;28;20101;-66
2023/06/06 01:15:10;;;;;;;14.32;9.90;;;13.50;99.90;;;;;;4995166;28;20440;-66
2023/06/06 01:17:41;;;;;;;13.10;9.25;;;13.40;99.90;;;;;;5013277;28;20102;-67
2023/06/06 01:20:11;;;;;;;16.13;9.13;;;13.40;99.90;;;;;;5011504;28;20060;-67
2023/06/06 01:22:39;;;;;;;13.70;10.20;;;13.40;99.90;;;;;;5013209;28;20038;-67
2023/06/06 01:25:07;;;;;;;10.90;9.43;;;13.40;99.90;;;;;;4978874;28;20156;-67
2023/06/06 01:27:35;;;;;;;12.50;9.45;;;13.40;99.90;;;;;;5012591;28;20061;-67
2023/06/06 01:30:04;;;;;;;14.43;9.52;;;13.40;99.90;;;;;;4978911;28;20145;-66
2023/06/06 01:33:08;;;;;;;12.35;9.15;;;13.30;99.90;;;;;;5013218;28;20042;-67
2023/06/06 01:35:50;;;;;;;12.90;9.25;;;13.30;99.90;;;;;;5005844;28;20103;-67
2023/06/06 01:38:26;;;;;;;13.98;9.55;;;13.20;99.90;;;;;;5011680;28;20383;-66
2023/06/06 01:40:56;;;;;;;11.98;9.35;;;13.20;99.90;;;;;;5012534;28;20490;-67
2023/06/06 01:43:26;;;;;;;12.60;10.30;;;13.20;99.90;;;;;;5012412;28;20152;-66
2023/06/06 01:45:56;;;;;;;10.85;9.20;;;13.20;99.90;;;;;;4978404;28;20096;-66
2023/06/06 01:48:24;;;;;;;12.15;9.70;;;13.10;99.90;;;;;;4969574;28;20065;-67
2023/06/06 01:50:54;;;;;;;12.63;9.68;;;13.10;99.90;;;;;;4999138;28;20041;-66
2023/06/06 01:53:21;;;;;;;12.85;9.60;;;13.10;99.90;;;;;;4992730;28;20433;-66
2023/06/06 01:55:49;;;;;;;12.48;9.80;;;13.00;99.90;;;;;;4995624;28;20048;-66
2023/06/06 01:58:18;;;;;;;12.10;8.98;;;13.00;99.90;;;;;;5009027;28;20053;-67
2023/06/06 02:00:46;;;;;;;13.73;9.82;;;12.90;99.90;;;;;;5012465;28;20038;-67
2023/06/06 02:03:13;;;;;;;11.10;9.50;;;13.00;99.90;;;;;;5020810;28;20042;-66
2023/06/06 02:05:41;;;;;;;12.70;10.25;;;12.90;99.90;;;;;;4999815;28;20033;-66
2023/06/06 02:08:09;;;;;;;11.38;10.02;;;12.90;99.90;;;;;;5011862;28;20493;-66
2023/06/06 02:10:37;;;;;;;13.35;10.50;;;12.70;99.90;;;;;;5001245;28;20410;-66
2023/06/06 02:13:06;;;;;;;12.13;10.57;;;12.70;99.90;;;;;;5005728;28;20044;-67
2023/06/06 02:15:34;;;;;;;15.48;11.18;;;12.70;99.90;;;;;;5010290;28;20045;-66
2023/06/06 02:18:03;;;;;;;11.75;10.55;;;12.70;99.90;;;;;;5006264;28;20533;-67
2023/06/06 02:20:30;;;;;;;14.65;11.00;;;12.70;99.90;;;;;;5012323;28;20040;-66
2023/06/06 02:22:58;;;;;;;13.52;10.48;;;12.60;99.90;;;;;;4997862;28;20481;-66
2023/06/06 02:25:26;;;;;;;13.45;10.98;;;12.50;99.90;;;;;;5011380;28;20037;-66
2023/06/06 02:27:55;;;;;;;14.27;10.55;;;12.50;99.90;;;;;;5001581;28;20049;-66
2023/06/06 02:30:25;;;;;;;13.05;10.10;;;12.50;99.90;;;;;;4968309;28;20149;-66
2023/06/06 02:32:56;;;;;;;12.27;10.73;;;12.50;99.90;;;;;;5010936;28;20474;-66
2023/06/06 02:35:23;;;;;;;15.32;11.23;;;12.50;99.90;;;;;;5002340;28;20269;-66
2023/06/06 02:37:52;;;;;;;14.50;11.00;;;12.50;99.90;;;;;;4993082;28;20517;-66
2023/06/06 02:40:20;;;;;;;13.85;11.60;;;12.40;99.90;;;;;;4992195;28;20411;-66
2023/06/06 02:42:48;;;;;;;12.05;10.57;;;12.30;99.90;;;;;;5003624;28;20046;-66
2023/06/06 02:45:16;;;;;;;11.50;10.18;;;12.20;99.90;;;;;;4992296;28;20034;-66
2023/06/06 02:47:44;;;;;;;15.38;10.80;;;12.10;99.90;;;;;;5000364;28;20157;-67
2023/06/06 02:50:11;;;;;;;13.85;11.00;;;12.10;99.90;;;;;;5000349;28;20498;-66
2023/06/06 02:52:40;;;;;;;15.25;10.90;;;12.10;99.90;;;;;;5001227;28;20038;-66
2023/06/06 02:55:08;;;;;;;13.75;10.75;;;12.10;99.90;;;;;;4989628;28;20057;-67
2023/06/06 02:57:36;;;;;;;13.18;11.07;;;12.10;99.90;;;;;;4987669;28;20516;-66
2023/06/06 03:00:07;;;;;;;15.43;10.93;;;12.10;99.90;;;;;;5009800;28;20054;-66
2023/06/06 03:02:35;;;;;;;11.98;10.38;;;12.00;99.90;;;;;;4999222;28;20405;-67
2023/06/06 03:05:04;;;;;;;11.90;10.10;;;11.90;99.90;;;;;;4989679;28;20121;-66
2023/06/06 03:07:32;;;;;;;11.63;10.32;;;11.90;99.90;;;;;;5010180;28;20030;-66
2023/06/06 03:09:59;;;;;;;13.38;10.05;;;11.90;99.90;;;;;;5001555;28;20049;-66
2023/06/06 03:12:33;;;;;;;15.52;10.77;;;11.80;99.90;;;;;;4990530;28;20499;-66
2023/06/06 03:15:01;;;;;;;14.10;12.38;;;11.80;99.90;;;;;;4980050;28;20045;-66
2023/06/06 03:17:35;;;;;;;15.27;11.43;;;11.90;99.90;;;;;;4984557;28;20049;-66
2023/06/06 03:20:07;;;;;;;15.18;10.57;;;11.90;99.90;;;;;;4992001;28;20059;-66
2023/06/06 03:22:36;;;;;;;15.00;10.13;;;11.90;99.90;;;;;;4994358;28;20037;-67
2023/06/06 03:25:05;;;;;;;13.73;10.65;;;11.90;99.90;;;;;;5009249;28;20493;-67
2023/06/06 03:27:32;;;;;;;14.20;10.40;;;11.90;99.90;;;;;;5007925;28;20524;-66
2023/06/06 03:30:02;;;;;;;13.57;10.07;;;11.90;99.90;;;;;;4998870;28;20165;-66
2023/06/06 03:32:31;;;;;;;15.07;10.50;;;11.90;99.90;;;;;;4993037;28;20045;-67
2023/06/06 03:35:00;;;;;;;13.07;10.57;;;11.90;99.90;;;;;;4983409;28;20054;-67
2023/06/06 03:37:28;;;;;;;14.32;10.07;;;11.90;99.90;;;;;;4979468;28;20138;-67
2023/06/06 03:39:55;;;;;;;11.40;9.68;;;11.90;99.90;;;;;;5012774;28;20038;-66
2023/06/06 03:42:23;;;;;;;13.15;10.90;;;12.00;99.90;;;;;;4998084;28;20053;-67
2023/06/06 03:44:50;;;;;;;13.63;11.02;;;12.10;99.90;;;;;;4991012;28;20464;-67
2023/06/06 03:47:18;;;;;;;11.23;10.02;;;12.00;99.90;;;;;;5015339;28;20049;-66
2023/06/06 03:49:45;;;;;;;12.80;9.77;;;12.00;99.90;;;;;;4992255;28;20085;-66
2023/06/06 03:52:12;;;;;;;13.77;10.93;;;12.10;99.90;;;;;;5011031;28;20096;-67
2023/06/06 03:54:41;;;;;;;13.95;10.90;;;12.10;99.90;;;;;;4976345;28;20042;-66
2023/06/06 03:57:08;;;;;;;15.93;10.40;;;12.10;99.90;;;;;;5005911;28;20042;-66
2023/06/06 03:59:36;;;;;;;11.48;10.25;;;12.20;99.90;;;;;;5010506;28;20038;-66
2023/06/06 04:02:04;;;;;;;11.90;10.02;;;12.20;99.90;;;;;;4991943;28;20130;-67
2023/06/06 04:04:32;;;;;;;12.40;9.88;;;12.30;99.90;;;;;;4993086;28;20046;-66
2023/06/06 04:07:00;;;;;;;12.50;10.27;;;12.30;99.90;;;;;;4977435;28;20038;-66
2023/06/06 04:09:27;;;;;;;13.02;10.43;;;12.40;99.90;;;;;;4984490;28;20042;-67
2023/06/06 04:11:54;;;;;;;13.02;9.90;;;12.50;99.90;;;;;;4998642;28;20393;-67
2023/06/06 04:14:23;;;;;;;12.15;10.57;;;12.60;99.90;;;;;;5002865;28;20389;-66
2023/06/06 04:16:50;;;;;;;12.93;10.02;;;12.60;99.90;;;;;;4990892;28;20042;-67
2023/06/06 04:19:19;;;;;;;13.43;10.57;;;12.70;99.90;;;;;;4998023;28;20053;-67
2023/06/06 04:21:47;;;;;;;13.25;11.18;;;12.70;99.90;;;;;;4991222;28;20040;-66
2023/06/06 04:24:14;;;;;;;15.70;11.68;;;12.70;99.90;;;;;;4999691;28;20045;-67
2023/06/06 04:26:42;;;;;;;14.70;12.45;;;12.70;99.90;;;;;;4975965;28;20049;-66
2023/06/06 04:29:12;;;;;;;16.55;12.80;;;12.70;99.90;;;;;;4990268;28;20057;-68
2023/06/06 04:31:41;;;;;;;16.65;12.38;;;12.60;99.90;;;;;;5007277;28;20045;-66
2023/06/06 04:34:12;;;;;;;17.73;13.15;;;12.60;99.90;;;;;;4993538;28;20034;-66
2023/06/06 04:36:40;;;;;;;17.50;13.20;;;12.60;99.90;;;;;;4993139;28;20056;-66
2023/06/06 04:39:09;;;;;;;16.30;12.00;;;12.60;99.90;;;;;;5016676;28;20164;-66
2023/06/06 04:41:37;;;;;;;14.75;12.32;;;12.70;99.90;;;;;;5010847;28;20045;-67
2023/06/06 04:44:08;;;;;;;14.40;12.40;;;12.80;99.90;;;;;;5000106;28;20038;-68
2023/06/06 04:46:36;;;;;;;18.95;12.70;;;12.80;99.90;;;;;;5012371;28;20046;-68
2023/06/06 04:49:05;;;;;;;16.58;12.45;;;12.80;99.90;;;;;;5003027;28;20042;-66
2023/06/06 04:51:36;;;;;;;18.38;12.77;;;12.90;99.90;;;;;;4966893;28;20045;-67
2023/06/06 04:54:06;;;;;;;15.32;12.27;;;12.90;99.90;;;;;;5015654;28;20049;-66
2023/06/06 04:56:34;;;;;;;13.93;12.05;;;13.00;99.90;;;;;;4993729;28;20038;-68
2023/06/06 04:59:06;;;;;;;16.65;12.48;;;13.10;99.90;;;;;;4995511;28;20041;-66
2023/06/06 05:01:37;;;;;;;16.10;11.98;;;13.20;99.90;;;;;;5013227;28;20516;-66
2023/06/06 05:04:05;;;;;;;15.80;11.73;;;13.20;99.90;;;;;;4995371;28;20184;-66
2023/06/06 05:06:34;;;;;;;20.50;12.85;;;13.30;99.90;;;;;;4979443;28;20060;-67
2023/06/06 05:09:04;;;;;;;17.58;13.23;;;13.40;99.90;;;;;;4998909;28;20034;-66
2023/06/06 05:11:32;;;;;;;21.05;12.57;;;13.50;99.90;;;;;;4995423;28;20050;-66
2023/06/06 05:14:00;;;;;;;19.70;13.00;;;13.40;99.90;;;;;;4979077;28;20050;-67
2023/06/06 05:16:27;;;;;;;14.85;12.93;;;13.50;99.90;;;;;;4995719;28;20050;-67
2023/06/06 05:18:55;;;;;;;18.73;13.68;;;13.60;99.90;;;;;;4996574;28;20049;-67
2023/06/06 05:21:23;;;;;;;17.83;13.43;;;13.70;99.90;;;;;;4995813;28;20558;-67
2023/06/06 05:23:50;;;;;;;19.13;13.52;;;13.70;99.90;;;;;;4996014;28;20155;-68
2023/06/06 05:26:17;;;;;;;19.40;12.82;;;13.80;99.90;;;;;;5013073;28;20065;-67
2023/06/06 05:28:45;;;;;;;18.92;12.73;;;13.90;99.90;;;;;;5014728;28;20050;-67
2023/06/06 05:31:16;;;;;;;18.02;13.60;;;13.90;99.90;;;;;;4996203;28;20042;-67
2023/06/06 05:33:44;;;;;;;19.35;13.43;;;14.00;99.90;;;;;;5009735;28;20104;-67
2023/06/06 05:36:11;;;;;;;13.43;11.88;;;14.10;99.90;;;;;;4996257;28;20048;-67
2023/06/06 05:38:39;;;;;;;15.38;11.82;;;14.30;99.90;;;;;;5012432;28;20059;-67
2023/06/06 05:41:06;;;;;;;14.25;11.95;;;14.40;99.90;;;;;;4993724;28;20037;-68
2023/06/06 05:43:34;;;;;;;15.15;11.73;;;14.40;99.90;;;;;;5013084;28;20052;-67
2023/06/06 05:46:02;;;;;;;14.25;12.10;;;14.40;99.90;;;;;;4994976;28;20030;-68
2023/06/06 05:48:30;;;;;;;14.20;11.65;;;14.50;99.90;;;;;;4987746;28;20042;-67
2023/06/06 05:50:57;;;;;;;15.00;11.52;;;14.50;99.90;;;;;;4980164;28;20064;-67
2023/06/06 05:53:26;;;;;;;15.60;12.05;;;14.70;99.90;;;;;;5020154;28;20084;-67
2023/06/06 05:55:53;;;;;;;12.25;10.80;;;14.70;99.90;;;;;;5011173;28;20034;-67
2023/06/06 05:58:20;;;;;;;13.57;12.10;;;14.90;99.90;;;;;;5011441;28;20517;-68
2023/06/06 06:00:48;;;;;;;13.32;10.75;;;14.90;99.90;;;;;;4994342;28;20061;-67
2023/06/06 06:03:15;;;;;;;15.05;11.68;;;15.10;99.90;;;;;;5011372;28;20449;-67
2023/06/06 06:05:44;;;;;;;13.35;10.75;;;15.20;99.90;;;;;;4996051;28;20501;-67
2023/06/06 06:08:12;;;;;;;14.68;10.85;;;15.30;99.90;;;;;;5012554;28;20061;-67
2023/06/06 06:10:39;;;;;;;19.55;11.10;;;15.40;99.90;;;;;;4978705;28;20104;-67
2023/06/06 06:13:07;;;;;;;15.35;11.20;;;15.50;99.90;;;;;;4996003;28;20528;-67
2023/06/06 06:15:35;;;;;;;14.52;10.38;;;15.60;99.90;;;;;;4999413;28;20042;-67
2023/06/06 06:18:03;;;;;;;13.75;9.73;;;15.70;99.90;;;;;;5012573;28;20049;-67
2023/06/06 06:20:31;;;;;;;12.88;9.93;;;15.90;99.90;;;;;;4978010;28;20066;-67
2023/06/06 06:22:58;;;;;;;12.35;9.52;;;16.20;99.90;;;;;;4995168;28;20366;-67
2023/06/06 06:25:26;;;;;;;10.63;9.52;;;16.40;99.90;;;;;;5010323;28;20041;-67
2023/06/06 06:27:55;;;;;;;18.65;10.98;;;16.60;99.90;;;;;;5010196;28;20042;-66
2023/06/06 06:30:23;;;;;;;11.27;8.32;;;16.80;99.90;;;;;;5011288;28;20044;-67
2023/06/06 06:32:50;;;;;;;11.32;9.65;;;17.00;99.90;;;;;;5011864;28;20577;-67
2023/06/06 06:35:18;;;;;;;9.57;8.23;;;17.20;99.90;;;;;;4977646;28;20042;-66
2023/06/06 06:37:46;;;;;;;10.63;8.32;;;17.00;99.90;;;;;;5010595;28;20046;-67
2023/06/06 06:40:13;;;;;;;10.82;8.23;;;17.40;99.90;;;;;;5011391;28;20053;-67
2023/06/06 06:42:43;;;;;;;8.13;7.32;;;17.70;99.90;;;;;;4993673;28;20045;-67
2023/06/06 06:45:26;;;;;;;12.93;9.40;;;18.10;99.90;;;;;;4977274;28;20472;-67
2023/06/06 06:47:54;;;;;;;12.27;8.38;;;18.50;99.90;;;;;;5011281;28;20041;-67
2023/06/06 06:50:22;;;;;;;10.73;8.27;;;18.90;99.90;;;;;;5011260;28;20042;-67
2023/06/06 06:52:49;;;;;;;10.48;7.82;;;18.90;99.90;;;;;;5012077;28;20100;-67
2023/06/06 06:55:17;;;;;;;8.70;7.90;;;19.00;99.90;;;;;;5011139;28;20573;-67
2023/06/06 06:57:44;;;;;;;9.13;8.23;;;19.20;99.90;;;;;;4993944;28;20572;-68
2023/06/06 07:00:14;;;;;;;9.13;8.20;;;19.20;99.90;;;;;;4992330;28;20065;-67
2023/06/06 07:02:44;;;;;;;10.88;8.20;;;19.20;99.90;;;;;;4985834;28;20046;-67
2023/06/06 07:05:15;;;;;;;8.73;7.90;;;19.20;99.90;;;;;;5010345;28;20045;-67
2023/06/06 07:07:52;;;;;;;11.15;7.72;;;18.90;99.90;;;;;;5008636;28;20041;-66
2023/06/06 07:10:23;;;;;;;8.50;7.60;;;18.70;99.90;;;;;;5010080;28;20379;-67
2023/06/06 07:12:52;;;;;;;9.10;7.88;;;18.70;99.90;;;;;;4987616;28;20064;-67
2023/06/06 07:15:25;;;;;;;8.63;7.72;;;18.70;99.90;;;;;;5024462;28;20172;-67
2023/06/06 07:17:53;;;;;;;8.05;7.22;;;18.90;99.90;;;;;;5008509;28;20046;-67
2023/06/06 07:20:23;;;;;;;9.75;8.10;;;19.00;99.90;;;;;;5009708;28;20125;-68
2023/06/06 07:22:56;;;;;;;9.30;7.90;;;18.80;99.90;;;;;;5007567;28;20462;-67
2023/06/06 07:25:23;;;;;;;9.43;7.90;;;18.90;99.90;;;;;;5014002;28;20116;-67
2023/06/06 07:27:52;;;;;;;9.48;7.78;;;19.30;99.90;;;;;;5010198;28;20046;-67
2023/06/06 07:30:19;;;;;;;9.02;7.85;;;19.60;99.90;;;;;;5012203;28;20049;-67
2023/06/06 07:32:47;;;;;;;9.75;7.43;;;19.90;99.90;;;;;;5015420;28;20129;-67
2023/06/06 07:35:19;;;;;;;8.55;7.65;;;20.30;99.90;;;;;;5008264;28;20049;-67
2023/06/06 07:37:47;;;;;;;10.65;8.20;;;20.50;99.90;;;;;;4993216;28;20034;-67
2023/06/06 07:40:16;;;;;;;10.93;7.80;;;20.70;99.90;;;;;;4993548;28;20049;-67
2023/06/06 07:42:44;;;;;;;11.68;8.15;;;20.70;99.90;;;;;;5006732;28;20129;-67
2023/06/06 07:45:13;;;;;;;9.45;8.00;;;20.50;99.90;;;;;;4991478;28;20171;-67
2023/06/06 07:47:40;;;;;;;11.23;9.10;;;20.60;99.90;;;;;;4991113;28;20132;-67
2023/06/06 07:50:08;;;;;;;11.38;7.97;;;20.70;99.90;;;;;;5008340;28;20041;-67
2023/06/06 07:52:36;;;;;;;10.35;8.02;;;20.80;99.90;;;;;;5010539;28;20040;-67
2023/06/06 07:55:05;;;;;;;10.38;8.25;;;20.70;99.90;;;;;;4991906;28;20053;-66
2023/06/06 07:57:33;;;;;;;9.27;7.50;;;20.40;99.90;;;;;;4992155;28;20086;-70
2023/06/06 08:00:06;;;;;;;9.85;7.70;;;20.60;99.90;;;;;;4991093;28;20046;-70
2023/06/06 08:02:39;;;;;;;8.65;7.45;;;20.70;99.90;;;;;;4993826;28;20046;-70
2023/06/06 08:05:08;;;;;;;10.80;9.60;;;20.60;99.90;;;;;;4989352;28;20077;-69
2023/06/06 08:07:39;;;;;;;8.93;8.02;;;20.40;99.90;;;;;;4996149;28;20108;-69
2023/06/06 08:10:07;;;;;;;8.82;7.05;;;20.40;99.90;;;;;;4992666;28;20042;-69
2023/06/06 08:12:35;;;;;;;8.65;7.50;;;20.60;99.90;;;;;;4976229;28;20390;-70
2023/06/06 08:15:09;;;;;;;18.63;7.57;;;20.60;99.90;;;;;;4973924;28;20560;-70
2023/06/06 08:17:38;;;;;;;11.98;7.90;;;20.80;99.90;;;;;;5008260;28;20038;-68
2023/06/06 08:20:08;;;;;;;8.38;7.50;;;20.80;99.90;;;;;;4979169;28;20056;-69
2023/06/06 08:22:38;;;;;;;9.95;8.02;;;21.00;99.90;;;;;;4999444;28;20085;-69
2023/06/06 08:25:07;;;;;;;10.55;9.48;;;21.00;99.90;;;;;;4979078;28;20053;-68
2023/06/06 08:27:36;;;;;;;9.80;8.80;;;20.90;99.90;;;;;;4994554;28;20117;-68
2023/06/06 08:30:04;;;;;;;9.73;8.07;;;20.90;99.90;;;;;;5012437;28;20381;-69
2023/06/06 08:32:33;;;;;;;8.63;7.57;;;20.80;99.90;;;;;;4978747;28;20038;-68
2023/06/06 08:35:03;;;;;;;12.00;8.38;;;20.80;99.90;;;;;;5003936;28;20061;-70
2023/06/06 08:37:30;;;;;;;8.63;7.70;;;20.90;99.90;;;;;;4994533;28;20050;-69
2023/06/06 08:39:58;;;;;;;9.55;7.70;;;20.90;99.90;;;;;;4979349;28;20423;-70
2023/06/06 08:42:27;;;;;;;9.10;7.75;;;20.90;99.90;;;;;;4995270;28;20465;-69
2023/06/06 08:44:56;;;;;;;9.65;8.65;;;21.10;99.90;;;;;;4990628;28;20046;-68
2023/06/06 08:47:26;;;;;;;10.40;7.88;;;21.30;99.90;;;;;;5016072;28;20753;-66
2023/06/06 08:49:54;;;;;;;10.27;8.40;;;21.30;99.90;;;;;;4995058;28;20046;-68
2023/06/06 08:52:23;;;;;;;10.57;8.18;;;21.40;99.90;;;;;;4979049;28;20053;-68
2023/06/06 08:54:51;;;;;;;9.77;7.50;;;21.50;99.90;;;;;;4974654;28;20134;-66
2023/06/06 08:57:19;;;;;;;9.52;7.95;;;21.80;99.90;;;;;;5011618;28;20127;-68
2023/06/06 08:59:47;;;;;;;10.40;8.40;;;21.80;99.90;;;;;;5016026;28;20045;-68
2023/06/06 09:02:15;;;;;;;10.88;8.38;;;21.70;99.90;;;;;;5010347;28;20042;-68
2023/06/06 09:04:44;;;;;;;8.98;8.07;;;21.50;99.90;;;;;;5011163;28;20038;-68
2023/06/06 09:07:14;;;;;;;13.13;10.13;;;21.30;99.90;;;;;;5011130;28;20042;-67
2023/06/06 09:09:45;;;;;;;12.27;7.97;;;21.00;99.90;;;;;;4995654;28;20050;-68
2023/06/06 09:12:12;;;;;;;10.68;8.45;;;20.90;99.90;;;;;;4991595;28;20045;-68
2023/06/06 09:14:41;;;;;;;11.23;8.55;;;21.00;99.90;;;;;;5010484;28;20425;-68
2023/06/06 09:17:15;;;;;;;9.43;8.23;;;21.00;99.90;;;;;;5010456;28;20049;-68
2023/06/06 09:19:45;;;;;;;8.13;7.30;;;21.20;99.90;;;;;;5012478;28;20038;-67
2023/06/06 09:22:13;;;;;;;8.35;7.60;;;21.00;99.90;;;;;;4994597;28;20456;-67
2023/06/06 09:24:44;;;;;;;13.35;7.72;;;21.20;99.90;;;;;;4994744;28;20050;-67
2023/06/06 09:27:28;;;;;;;;;;;21.20;99.90;;;;;;5012133;28;20187;-67
2023/06/06 09:29:56;;;;;;;8.02;6.72;;;21.20;99.90;;;;;;5009958;28;20399;-68
2023/06/06 09:32:30;;;;;;;9.70;7.47;;;21.10;99.90;;;;;;5018412;28;20505;-68
2023/06/06 09:35:03;;;;;;;9.38;7.25;;;21.00;99.90;;;;;;5006342;28;20152;-68
2023/06/06 09:37:31;;;;;;;7.68;6.78;;;20.90;99.90;;;;;;5017878;28;20529;-66
2023/06/06 09:40:18;;;;;;;8.45;7.55;;;21.00;99.90;;;;;;4994970;28;20065;-68
2023/06/06 09:42:48;;;;;;;7.47;6.82;;;21.00;99.90;;;;;;5005445;28;20047;-68
2023/06/06 09:45:17;;;;;;;8.00;7.30;;;21.30;99.90;;;;;;4993049;28;20038;-67
2023/06/06 09:47:47;;;;;;;8.07;7.28;;;21.40;99.90;;;;;;5008892;28;20053;-68
2023/06/06 09:50:18;;;;;;;7.38;6.60;;;21.70;99.90;;;;;;5010729;28;20042;-67
2023/06/06 09:52:51;;;;;;;8.52;7.15;;;21.90;99.90;;;;;;5005069;28;20030;-67
2023/06/06 09:55:20;;;;;;;7.47;6.78;;;22.10;99.90;;;;;;5000512;28;20129;-68
2023/06/06 09:57:53;;;;;;;9.60;7.20;;;22.40;99.90;;;;;;4992911;28;20060;-67
2023/06/06 10:00:22;;;;;;;8.20;7.40;;;22.30;99.90;;;;;;5011064;28;20526;-67
2023/06/06 10:02:50;;;;;;;8.27;7.38;;;22.20;99.90;;;;;;4978207;28;20050;-68
2023/06/06 10:05:26;;;;;;;7.85;7.05;;;22.60;99.90;;;;;;5004994;28;20053;-67
2023/06/06 10:07:56;;;;;;;8.15;7.35;;;22.80;99.90;;;;;;5011714;28;20045;-68
2023/06/06 10:10:26;;;;;;;7.82;7.13;;;22.40;99.90;;;;;;4993612;28;20066;-68
2023/06/06 10:12:55;;;;;;;7.88;7.20;;;22.10;99.90;;;;;;5010164;28;20130;-67
2023/06/06 10:15:25;;;;;;;9.13;7.53;;;21.90;99.90;;;;;;4990895;28;20522;-68
2023/06/06 10:17:53;;;;;;;8.10;7.30;;;21.60;99.90;;;;;;5008806;28;20034;-68
2023/06/06 10:20:22;;;;;;;8.18;7.47;;;21.80;99.90;;;;;;5007903;28;20501;-68
2023/06/06 10:22:50;;;;;;;8.45;7.65;;;21.60;99.90;;;;;;5001274;28;20058;-67
2023/06/06 10:25:18;;;;;;;7.90;7.18;;;21.50;99.90;;;;;;4972513;28;20050;-67
2023/06/06 10:28:00;;;;;;;8.55;7.75;;;21.50;99.90;;;;;;4996789;28;20046;-68
2023/06/06 10:30:30;;;;;;;8.27;7.47;;;21.70;99.90;;;;;;5009681;28;20065;-68
2023/06/06 10:33:34;;;;;;;9.65;8.13;;;22.20;99.90;;;;;;5009472;28;20319;-68
2023/06/06 10:36:08;;;;;;;8.60;7.80;;;22.30;99.90;;;;;;5002756;28;20133;-68
2023/06/06 10:38:37;;;;;;;8.50;7.60;;;22.70;99.90;;;;;;4974520;28;20521;-68
2023/06/06 10:41:16;;;;;;;8.90;7.38;;;22.80;99.90;;;;;;4985529;28;20042;-69
2023/06/06 10:43:46;;;;;;;8.27;7.47;;;22.70;99.90;;;;;;5010112;28;20513;-67
2023/06/06 10:46:14;;;;;;;8.25;7.45;;;23.00;99.90;;;;;;4975517;28;20050;-67
2023/06/06 10:48:45;;;;;;;8.20;7.40;;;22.50;99.90;;;;;;4994359;28;20038;-67
2023/06/06 10:51:30;;;;;;;9.00;7.68;;;22.40;99.90;;;;;;5003918;28;20073;-68
2023/06/06 10:54:21;;;;;;;10.57;7.53;;;22.60;99.90;;;;;;5009713;28;20079;-67
2023/06/06 10:56:54;;;;;;;7.93;7.13;;;22.30;99.90;;;;;;4999620;28;20558;-68
2023/06/06 10:59:31;;;;;;;7.68;6.97;;;22.50;99.90;;;;;;4991432;28;20526;-68
2023/06/06 11:01:59;;;;;;;8.68;7.78;;;22.00;99.90;;;;;;5004416;28;20050;-68
2023/06/06 11:04:29;;;;;;;7.28;6.65;;;21.80;99.90;;;;;;5009989;28;20072;-67
2023/06/06 11:07:00;;;;;;;7.40;6.72;;;21.60;99.90;;;;;;4999943;28;20046;-68
2023/06/06 11:09:32;;;;;;;8.52;6.43;;;20.80;99.90;;;;;;4960800;28;20553;-68
2023/06/06 11:12:11;;;;;;;;;;;20.90;99.90;;;;;;5014792;28;20470;-67
2023/06/06 11:15:05;;;;;;;7.40;6.68;;;21.20;99.90;;;;;;5009850;28;19921;-67
2023/06/06 11:17:55;;;;;;;6.90;6.20;;;21.40;99.90;;;;;;5013697;28;20514;-68
2023/06/06 11:20:27;;;;;;;6.35;5.75;;;21.30;99.90;;;;;;5016525;28;20149;-68
2023/06/06 11:23:01;;;;;;;7.43;5.70;;;21.60;99.90;;;;;;5011818;28;20046;-68
2023/06/06 11:25:30;;;;;;;6.78;6.05;;;21.30;99.90;;;;;;5011654;28;20141;-67
2023/06/06 11:27:58;;;;;;;6.50;6.00;;;21.50;99.90;;;;;;4991483;28;20125;-67
2023/06/06 11:30:46;;;;;;;7.88;6.10;;;21.60;99.90;;;;;;5015498;28;20036;-68
2023/06/06 11:33:13;;;;;;;5.93;5.43;;;21.70;99.90;;;;;;5019077;28;20096;-67
2023/06/06 11:35:42;;;;;;;6.50;5.90;;;22.50;99.90;;;;;;4983147;28;20053;-67
2023/06/06 11:38:09;;;;;;;5.53;5.03;;;23.00;99.90;;;;;;4994381;28;20576;-67
2023/06/06 11:40:37;;;;;;;5.88;5.32;;;23.40;99.90;;;;;;5009497;28;20064;-67
2023/06/06 11:43:05;;;;;;;5.80;5.30;;;23.50;99.90;;;;;;5014826;28;20046;-67
2023/06/06 11:45:32;;;;;;;6.22;5.28;;;23.80;99.90;;;;;;5000150;28;20098;-66
2023/06/06 11:48:00;;;;;;;6.03;5.53;;;24.10;99.90;;;;;;4985198;28;20035;-68
2023/06/06 11:50:30;;;;;;;5.30;4.80;;;24.40;99.90;;;;;;4987840;28;20049;-68
2023/06/06 11:52:58;;;;;;;5.85;4.90;;;24.10;99.90;;;;;;5002078;28;20044;-68
2023/06/06 11:55:38;;;;;;;5.43;4.90;;;24.00;99.90;;;;;;4999372;28;20053;-67
2023/06/06 11:58:07;;;;;;;6.18;4.97;;;24.00;99.90;;;;;;5012667;28;20070;-68
2023/06/06 12:00:34;;;;;;;5.47;4.97;;;24.20;99.90;;;;;;5006405;28;20119;-68
2023/06/06 12:03:02;;;;;;;6.35;5.20;;;24.60;99.90;;;;;;4998015;28;20048;-68
2023/06/06 12:05:30;;;;;;;5.80;5.30;;;24.60;99.90;;;;;;4988659;28;20052;-68
2023/06/06 12:07:59;;;;;;;7.78;7.07;;;24.70;99.90;;;;;;5009352;28;20034;-67
2023/06/06 12:10:30;;;;;;;5.50;5.00;;;24.40;99.90;;;;;;5017006;28;20069;-68
2023/06/06 12:12:58;;;;;;;5.40;5.00;;;24.30;99.90;;;;;;5008953;28;20049;-69
2023/06/06 12:15:49;;;;;;;5.97;5.47;;;24.40;99.90;;;;;;4995201;28;20042;-68
2023/06/06 12:18:17;;;;;;;5.68;5.22;;;24.10;99.90;;;;;;5001462;28;20060;-68
2023/06/06 12:20:47;;;;;;;6.13;5.53;;;23.60;99.90;;;;;;5007594;28;20042;-67
2023/06/06 12:23:31;;;;;;;6.18;5.57;;;23.90;99.90;;;;;;5008930;28;20046;-68
2023/06/06 12:25:58;;;;;;;6.30;5.28;;;23.70;99.90;;;;;;5008345;28;20460;-67
2023/06/06 12:28:25;;;;;;;6.10;5.60;;;24.00;99.90;;;;;;5017540;28;20136;-67
2023/06/06 12:30:54;;;;;;;5.65;5.15;;;24.00;99.90;;;;;;4999053;28;20084;-67
2023/06/06 12:33:22;;;;;;;6.10;5.60;;;24.20;99.90;;;;;;5009462;28;20068;-67
2023/06/06 12:35:49;;;;;;;6.10;5.40;;;24.20;99.90;;;;;;4988234;28;20436;-67
2023/06/06 12:38:22;;;;;;;5.75;5.25;;;24.10;99.90;;;;;;4999274;28;20123;-68
2023/06/06 12:40:56;;;;;;;5.90;5.40;;;24.10;99.90;;;;;;4981436;28;20060;-67
2023/06/06 12:43:24;;;;;;;6.03;5.53;;;24.40;99.90;;;;;;5007325;28;21608;-67
2023/06/06 12:45:52;;;;;;;5.15;4.75;;;24.20;99.90;;;;;;4999266;28;20077;-67
2023/06/06 12:48:22;;;;;;;5.30;4.90;;;24.20;99.90;;;;;;4981657;28;20070;-68
2023/06/06 12:50:51;;;;;;;5.45;5.00;;;24.50;99.90;;;;;;5008064;28;20038;-68